Time;durP1;ratioP1;P1;durP2;ratioP2;P2;SDS_P1;SDS_P2;PMS_P1;PMS_P2;Temp;Humidity;BMP_temperature;BMP_pressure;BME280_temperature;BME280_humidity;BME280_pressure;Samples;Min_cycle;Max_cycle;Signal;HPM_P1;HPM_P2
2022/07/12 00:01:52;;;;;;;2.40;1.80;;;;;;;;;;5001329;28;20230;-61
2022/07/12 00:04:18;;;;;;;2.50;1.93;;;;;;;;;;5002308;28;20594;-61
2022/07/12 00:06:45;;;;;;;1.83;1.70;;;;;;;;;;5001493;28;20236;-61
2022/07/12 00:09:13;;;;;;;3.43;2.10;;;;;;;;;;5003391;28;20302;-61
2022/07/12 00:11:39;;;;;;;2.73;1.87;;;;;;;;;;5000690;28;20609;-61
2022/07/12 00:14:06;;;;;;;4.07;2.10;;;;;;;;;;4997048;28;20269;-61
2022/07/12 00:16:33;;;;;;;3.87;1.80;;;;;;;;;;4983743;28;20246;-61
2022/07/12 00:19:00;;;;;;;2.83;2.00;;;;;;;;;;4987885;28;20232;-61
2022/07/12 00:21:26;;;;;;;2.87;1.93;;;;;;;;;;5000771;28;20702;-62
2022/07/12 00:23:53;;;;;;;2.97;1.90;;;;;;;;;;4982379;28;20232;-61
2022/07/12 00:26:20;;;;;;;2.13;1.90;;;;;;;;;;4992398;28;20233;-61
2022/07/12 00:28:47;;;;;;;2.40;1.60;;;;;;;;;;4987948;28;20252;-61
2022/07/12 00:31:31;;;;;;;3.27;1.70;;;;;;;;;;4984912;28;20214;-61
2022/07/12 00:33:58;;;;;;;3.23;2.00;;;;;;;;;;4966580;28;20327;-61
2022/07/12 00:36:25;;;;;;;2.77;2.07;;;;;;;;;;4992721;28;20266;-62
2022/07/12 00:38:52;;;;;;;2.10;1.90;;;;;;;;;;5001367;28;20734;-61
2022/07/12 00:41:19;;;;;;;1.87;1.60;;;;;;;;;;4999683;28;20235;-61
2022/07/12 00:43:45;;;;;;;2.30;1.87;;;;;;;;;;5001391;28;20251;-61
2022/07/12 00:46:13;;;;;;;3.63;1.80;;;;;;;;;;5000500;28;20255;-61
2022/07/12 00:48:40;;;;;;;6.60;2.87;;;;;;;;;;5002012;28;20598;-61
2022/07/12 00:51:06;;;;;;;3.00;2.60;;;;;;;;;;4983250;28;20234;-59
2022/07/12 00:53:33;;;;;;;5.53;3.03;;;;;;;;;;5002576;28;20227;-59
2022/07/12 00:56:00;;;;;;;2.20;1.93;;;;;;;;;;4979231;28;20220;-60
2022/07/12 00:58:27;;;;;;;1.90;1.70;;;;;;;;;;4997473;28;20630;-60
2022/07/12 01:00:55;;;;;;;3.47;2.10;;;;;;;;;;4985576;28;20227;-61
2022/07/12 01:03:21;;;;;;;3.13;2.20;;;;;;;;;;4998937;28;20227;-61
2022/07/12 01:05:48;;;;;;;4.40;3.00;;;;;;;;;;4997989;28;20316;-60
2022/07/12 01:08:15;;;;;;;3.50;2.50;;;;;;;;;;4985646;28;20223;-61
2022/07/12 01:10:42;;;;;;;4.03;2.53;;;;;;;;;;4986987;28;20238;-61
2022/07/12 01:13:08;;;;;;;2.40;2.10;;;;;;;;;;4985176;28;20224;-60
2022/07/12 01:15:53;;;;;;;4.30;2.80;;;;;;;;;;5000312;28;20902;-60
2022/07/12 01:18:19;;;;;;;5.40;2.40;;;;;;;;;;5001260;28;20598;-61
2022/07/12 01:20:46;;;;;;;2.97;2.10;;;;;;;;;;4982651;28;20243;-60
2022/07/12 01:23:13;;;;;;;4.50;3.13;;;;;;;;;;4967460;28;20565;-60
2022/07/12 01:25:40;;;;;;;4.40;2.90;;;;;;;;;;4982451;28;20233;-60
2022/07/12 01:28:06;;;;;;;4.60;3.23;;;;;;;;;;5002011;28;20254;-60
2022/07/12 01:30:33;;;;;;;2.70;2.33;;;;;;;;;;4980622;28;20227;-61
2022/07/12 01:33:00;;;;;;;4.03;2.60;;;;;;;;;;4989210;28;21035;-60
2022/07/12 01:35:27;;;;;;;4.30;3.37;;;;;;;;;;4998899;28;20226;-61
2022/07/12 01:38:11;;;;;;;10.20;6.23;;;;;;;;;;4998938;28;20219;-60
2022/07/12 01:40:38;;;;;;;11.10;5.90;;;;;;;;;;4979437;28;20227;-60
2022/07/12 01:43:05;;;;;;;4.07;2.50;;;;;;;;;;4995712;28;20223;-60
2022/07/12 01:45:32;;;;;;;3.60;2.30;;;;;;;;;;5001939;28;20220;-61
2022/07/12 01:47:58;;;;;;;3.43;2.30;;;;;;;;;;4996947;28;20223;-60
2022/07/12 01:50:25;;;;;;;3.03;2.60;;;;;;;;;;5001044;28;20281;-60
2022/07/12 01:52:53;;;;;;;3.33;2.37;;;;;;;;;;4999711;28;20231;-60
2022/07/12 01:55:20;;;;;;;3.97;2.10;;;;;;;;;;4995955;28;20365;-60
2022/07/12 01:57:47;;;;;;;4.27;1.73;;;;;;;;;;4981852;28;20219;-60
2022/07/12 02:00:14;;;;;;;2.33;2.00;;;;;;;;;;5000578;28;20239;-59
2022/07/12 02:02:41;;;;;;;3.33;2.00;;;;;;;;;;4998631;28;20251;-60
2022/07/12 02:05:08;;;;;;;4.10;1.87;;;;;;;;;;5002414;28;20227;-61
2022/07/12 02:07:35;;;;;;;2.70;2.03;;;;;;;;;;5000109;28;20482;-62
2022/07/12 02:10:01;;;;;;;2.13;1.93;;;;;;;;;;5008148;28;20237;-62
2022/07/12 02:12:29;;;;;;;3.30;2.10;;;;;;;;;;4989546;28;20298;-61
2022/07/12 02:14:55;;;;;;;4.00;2.10;;;;;;;;;;5003995;28;20234;-61
2022/07/12 02:17:22;;;;;;;2.53;2.33;;;;;;;;;;5003235;28;31426;-62
2022/07/12 02:19:49;;;;;;;4.17;2.37;;;;;;;;;;5004951;28;20231;-61
2022/07/12 02:22:34;;;;;;;6.17;4.07;;;;;;;;;;5002481;28;20227;-61
2022/07/12 02:25:01;;;;;;;4.20;3.20;;;;;;;;;;5004501;28;20231;-61
2022/07/12 02:27:45;;;;;;;5.53;3.40;;;;;;;;;;5002497;28;20262;-62
2022/07/12 02:30:12;;;;;;;7.50;3.20;;;;;;;;;;5003828;28;20227;-61
2022/07/12 02:32:56;;;;;;;3.10;2.50;;;;;;;;;;5003838;28;20231;-63
2022/07/12 02:35:24;;;;;;;8.43;5.13;;;;;;;;;;4991260;28;20234;-61
2022/07/12 02:37:51;;;;;;;4.70;3.50;;;;;;;;;;4977683;28;20232;-61
2022/07/12 02:43:03;;;;;;;7.90;3.50;;;;;;;;;;5001876;28;36053;-61
2022/07/12 02:45:30;;;;;;;5.37;3.70;;;;;;;;;;4979542;28;20238;-61
2022/07/12 02:47:57;;;;;;;5.27;3.30;;;;;;;;;;4992106;28;20238;-62
2022/07/12 02:50:23;;;;;;;4.40;3.00;;;;;;;;;;5004281;28;20317;-61
2022/07/12 02:52:50;;;;;;;3.90;3.10;;;;;;;;;;5003352;28;20236;-61
2022/07/12 02:55:17;;;;;;;5.97;3.50;;;;;;;;;;4971091;28;20970;-62
2022/07/12 02:57:44;;;;;;;4.73;3.60;;;;;;;;;;4983734;28;20244;-61
2022/07/12 03:00:11;;;;;;;6.90;4.00;;;;;;;;;;4986941;28;20243;-62
2022/07/12 03:02:38;;;;;;;10.57;3.90;;;;;;;;;;4999127;28;20235;-59
2022/07/12 03:05:05;;;;;;;5.73;3.70;;;;;;;;;;4999737;28;20248;-61
2022/07/12 03:07:31;;;;;;;4.90;3.77;;;;;;;;;;4982971;28;20231;-59
2022/07/12 03:09:58;;;;;;;3.87;3.20;;;;;;;;;;4991086;28;20302;-60
2022/07/12 03:12:25;;;;;;;6.27;4.50;;;;;;;;;;4996743;28;20235;-61
2022/07/12 03:14:52;;;;;;;8.80;4.23;;;;;;;;;;4998857;28;20224;-60
2022/07/12 03:17:18;;;;;;;5.70;4.43;;;;;;;;;;4996775;28;20725;-60
2022/07/12 03:19:45;;;;;;;8.77;5.10;;;;;;;;;;5001805;28;20721;-60
2022/07/12 03:22:12;;;;;;;4.50;3.50;;;;;;;;;;5000668;28;20262;-60
2022/07/12 03:24:38;;;;;;;6.87;4.40;;;;;;;;;;4998729;28;20246;-60
2022/07/12 03:27:05;;;;;;;8.33;5.13;;;;;;;;;;5002467;28;20235;-60
2022/07/12 03:29:32;;;;;;;4.73;3.73;;;;;;;;;;5004179;28;21498;-60
2022/07/12 03:31:58;;;;;;;3.50;3.20;;;;;;;;;;4984217;28;20242;-60
2022/07/12 03:34:25;;;;;;;5.10;3.00;;;;;;;;;;4998958;28;20240;-60
2022/07/12 03:36:52;;;;;;;4.27;3.57;;;;;;;;;;5002205;28;20242;-60
2022/07/12 03:39:19;;;;;;;3.83;3.23;;;;;;;;;;4987516;28;20636;-60
2022/07/12 03:41:45;;;;;;;2.73;2.53;;;;;;;;;;5001641;28;20231;-61
2022/07/12 03:44:12;;;;;;;3.00;2.70;;;;;;;;;;5003767;28;20281;-60
2022/07/12 03:46:39;;;;;;;2.57;1.93;;;;;;;;;;5001254;28;20289;-61
2022/07/12 03:49:06;;;;;;;3.43;2.33;;;;;;;;;;5003268;28;20314;-61
2022/07/12 03:51:32;;;;;;;3.67;1.90;;;;;;;;;;4999552;28;20643;-60
2022/07/12 03:53:59;;;;;;;4.40;1.67;;;;;;;;;;5003190;28;20717;-61
2022/07/12 03:59:12;;;;;;;3.93;2.80;;;;;;;;;;4984913;28;20215;-61
2022/07/12 04:01:39;;;;;;;4.20;2.20;;;;;;;;;;4992182;28;20242;-61
2022/07/12 04:04:06;;;;;;;6.70;1.80;;;;;;;;;;4995188;28;20680;-60
2022/07/12 04:06:33;;;;;;;3.67;1.60;;;;;;;;;;4993159;28;20219;-61
2022/07/12 04:08:59;;;;;;;2.60;1.50;;;;;;;;;;4993632;28;20235;-61
2022/07/12 04:11:26;;;;;;;3.37;2.33;;;;;;;;;;4996006;28;20317;-61
2022/07/12 04:13:53;;;;;;;5.27;2.90;;;;;;;;;;4995202;28;20246;-61
2022/07/12 04:16:19;;;;;;;5.03;2.00;;;;;;;;;;4994656;28;20280;-62
2022/07/12 04:18:47;;;;;;;2.30;1.43;;;;;;;;;;4996383;28;20324;-61
2022/07/12 04:21:14;;;;;;;2.20;1.40;;;;;;;;;;4994444;28;20235;-63
2022/07/12 04:23:41;;;;;;;3.00;1.23;;;;;;;;;;4994837;28;20922;-62
2022/07/12 04:26:07;;;;;;;2.83;1.50;;;;;;;;;;4992992;28;20330;-62
2022/07/12 04:28:35;;;;;;;2.27;1.10;;;;;;;;;;4995629;28;20981;-61
2022/07/12 04:31:02;;;;;;;2.63;1.47;;;;;;;;;;4993535;28;20238;-63
2022/07/12 04:33:29;;;;;;;2.47;1.30;;;;;;;;;;4987630;28;20877;-62
2022/07/12 04:35:56;;;;;;;1.57;1.20;;;;;;;;;;4993950;28;20321;-62
2022/07/12 04:38:23;;;;;;;1.50;1.20;;;;;;;;;;4994624;28;20219;-60
2022/07/12 04:40:50;;;;;;;4.13;1.30;;;;;;;;;;4990088;28;20232;-61
2022/07/12 04:43:17;;;;;;;3.10;1.30;;;;;;;;;;4989242;28;33043;-62
2022/07/12 04:45:44;;;;;;;3.07;1.30;;;;;;;;;;4988219;28;30328;-61
2022/07/12 04:48:11;;;;;;;2.80;1.47;;;;;;;;;;4972488;28;20226;-61
2022/07/12 04:50:38;;;;;;;11.07;1.83;;;;;;;;;;4986653;28;20247;-61
2022/07/12 04:53:05;;;;;;;3.03;1.20;;;;;;;;;;4992547;28;20235;-61
2022/07/12 04:55:32;;;;;;;3.07;1.37;;;;;;;;;;4988346;28;58893;-64
2022/07/12 04:57:58;;;;;;;2.27;1.47;;;;;;;;;;4988265;28;20227;-62
2022/07/12 05:00:25;;;;;;;2.17;1.00;;;;;;;;;;4983261;28;20243;-61
2022/07/12 05:03:10;;;;;;;2.63;1.20;;;;;;;;;;4991342;28;20227;-60
2022/07/12 05:05:37;;;;;;;1.97;1.17;;;;;;;;;;4994918;28;20228;-59
2022/07/12 05:08:04;;;;;;;2.20;1.23;;;;;;;;;;4993210;28;20223;-60
2022/07/12 05:10:31;;;;;;;2.30;1.50;;;;;;;;;;4993182;28;20656;-60
2022/07/12 05:12:58;;;;;;;1.37;1.27;;;;;;;;;;4980434;28;20219;-60
2022/07/12 05:15:24;;;;;;;4.30;1.20;;;;;;;;;;5001961;28;20685;-59
2022/07/12 05:17:51;;;;;;;2.00;1.60;;;;;;;;;;5000004;28;20594;-60
2022/07/12 05:20:19;;;;;;;1.27;0.80;;;;;;;;;;5001821;28;20231;-59
2022/07/12 05:22:45;;;;;;;4.03;1.10;;;;;;;;;;4996352;28;20358;-60
2022/07/12 05:25:12;;;;;;;1.67;1.00;;;;;;;;;;5000978;28;20311;-60
2022/07/12 05:27:39;;;;;;;1.30;0.90;;;;;;;;;;4993248;28;20231;-60
2022/07/12 05:30:06;;;;;;;2.07;1.00;;;;;;;;;;5000849;28;20231;-59
2022/07/12 05:32:33;;;;;;;1.10;1.00;;;;;;;;;;5000162;28;20234;-59
2022/07/12 05:35:00;;;;;;;1.47;1.00;;;;;;;;;;4974667;28;20235;-61
2022/07/12 05:37:26;;;;;;;2.57;1.60;;;;;;;;;;4989360;28;20235;-61
2022/07/12 05:39:53;;;;;;;2.87;0.80;;;;;;;;;;4953995;28;29352;-61
2022/07/12 05:42:20;;;;;;;2.53;0.90;;;;;;;;;;4984899;28;20234;-61
2022/07/12 05:44:47;;;;;;;1.50;0.87;;;;;;;;;;5001648;28;20230;-60
2022/07/12 05:47:14;;;;;;;2.70;0.80;;;;;;;;;;4999775;28;20235;-60
2022/07/12 05:49:40;;;;;;;1.80;0.90;;;;;;;;;;5000348;28;24711;-60
2022/07/12 05:54:52;;;;;;;1.17;0.80;;;;;;;;;;5001121;28;20635;-61
2022/07/12 05:57:19;;;;;;;1.77;0.80;;;;;;;;;;4998990;28;20239;-61
2022/07/12 05:59:46;;;;;;;2.60;0.83;;;;;;;;;;5002059;28;20682;-60
2022/07/12 06:02:13;;;;;;;3.20;0.90;;;;;;;;;;5000012;28;20249;-61
2022/07/12 06:04:39;;;;;;;6.30;1.33;;;;;;;;;;4965498;28;20238;-61
2022/07/12 06:07:06;;;;;;;2.00;0.80;;;;;;;;;;5001591;28;21009;-61
2022/07/12 06:09:33;;;;;;;1.47;0.87;;;;;;;;;;4998741;28;20312;-61
2022/07/12 06:11:59;;;;;;;0.73;0.70;;;;;;;;;;5000892;28;20223;-61
2022/07/12 06:14:26;;;;;;;1.80;0.80;;;;;;;;;;4982238;28;21740;-62
2022/07/12 06:16:53;;;;;;;2.10;0.90;;;;;;;;;;4976392;28;20231;-61
2022/07/12 06:19:22;;;;;;;2.97;0.70;;;;;;;;;;4992414;28;20227;-62
2022/07/12 06:21:49;;;;;;;1.37;0.80;;;;;;;;;;4991072;28;20239;-62
2022/07/12 06:24:16;;;;;;;1.40;0.60;;;;;;;;;;4994048;28;20235;-62
2022/07/12 06:26:44;;;;;;;1.97;0.60;;;;;;;;;;4989348;28;20242;-63
2022/07/12 06:29:28;;;;;;;2.73;0.70;;;;;;;;;;4992629;28;20650;-63
2022/07/12 06:31:55;;;;;;;1.67;0.70;;;;;;;;;;4991230;28;20227;-63
2022/07/12 06:34:39;;;;;;;2.57;1.17;;;;;;;;;;4991480;28;20270;-64
2022/07/12 06:37:08;;;;;;;1.67;0.70;;;;;;;;;;4992834;28;20228;-62
2022/07/12 06:39:36;;;;;;;1.80;0.70;;;;;;;;;;4988608;28;20640;-61
2022/07/12 06:42:05;;;;;;;2.30;0.60;;;;;;;;;;4993975;28;23516;-61
2022/07/12 06:44:32;;;;;;;1.43;0.50;;;;;;;;;;4993083;28;20236;-60
2022/07/12 06:46:59;;;;;;;2.63;0.60;;;;;;;;;;4992540;28;20905;-62
2022/07/12 06:49:26;;;;;;;2.03;0.50;;;;;;;;;;4991956;28;21965;-62
2022/07/12 06:51:52;;;;;;;0.83;0.50;;;;;;;;;;4992974;28;20228;-63
2022/07/12 06:54:19;;;;;;;1.30;0.40;;;;;;;;;;4994671;28;20313;-62
2022/07/12 06:56:46;;;;;;;2.33;0.70;;;;;;;;;;4998123;28;20243;-62
2022/07/12 06:59:13;;;;;;;1.50;0.40;;;;;;;;;;4996228;28;20300;-62
2022/07/12 07:01:42;;;;;;;2.20;0.60;;;;;;;;;;4997839;28;20284;-61
2022/07/12 07:04:09;;;;;;;0.60;0.40;;;;;;;;;;4997054;28;20231;-61
2022/07/12 07:06:35;;;;;;;2.97;0.60;;;;;;;;;;4997613;28;20250;-62
2022/07/12 07:09:06;;;;;;;1.03;0.50;;;;;;;;;;4994655;28;20227;-62
2022/07/12 07:11:34;;;;;;;1.10;0.70;;;;;;;;;;4992926;28;20907;-63
2022/07/12 07:14:02;;;;;;;1.53;0.57;;;;;;;;;;4998316;28;20235;-62
2022/07/12 07:16:29;;;;;;;1.57;0.40;;;;;;;;;;4983853;28;20235;-61
2022/07/12 07:18:56;;;;;;;2.93;0.53;;;;;;;;;;4997144;28;20247;-62
2022/07/12 07:21:22;;;;;;;1.33;0.40;;;;;;;;;;4993195;28;20271;-62
2022/07/12 07:23:49;;;;;;;1.43;0.50;;;;;;;;;;4995640;28;20250;-62
2022/07/12 07:26:16;;;;;;;0.57;0.40;;;;;;;;;;4994045;28;20827;-62
2022/07/12 07:31:39;;;;;;;0.67;0.43;;;;;;;;;;4942062;28;20330;-63
2022/07/12 07:34:06;;;;;;;3.43;0.40;;;;;;;;;;4997103;28;21902;-62
2022/07/12 07:36:33;;;;;;;1.70;0.50;;;;;;;;;;4993203;28;20308;-63
2022/07/12 07:39:00;;;;;;;1.43;0.60;;;;;;;;;;4960016;28;20227;-63
2022/07/12 07:41:27;;;;;;;5.37;0.90;;;;;;;;;;4989861;28;20926;-65
2022/07/12 07:43:54;;;;;;;2.07;0.40;;;;;;;;;;4997121;28;20255;-64
2022/07/12 07:46:21;;;;;;;0.50;0.40;;;;;;;;;;4995288;28;20266;-64
2022/07/12 07:48:48;;;;;;;0.80;0.50;;;;;;;;;;4987423;28;20235;-63
2022/07/12 07:51:15;;;;;;;1.07;0.53;;;;;;;;;;4995601;28;20227;-63
2022/07/12 07:53:42;;;;;;;2.23;0.60;;;;;;;;;;4997498;28;20250;-62
2022/07/12 07:56:09;;;;;;;0.73;0.40;;;;;;;;;;4978059;28;20224;-63
2022/07/12 07:58:36;;;;;;;1.80;0.50;;;;;;;;;;4998068;28;20579;-63
2022/07/12 08:01:02;;;;;;;1.27;0.47;;;;;;;;;;4995330;28;20244;-63
2022/07/12 08:03:29;;;;;;;2.07;0.60;;;;;;;;;;4997286;28;20265;-63
2022/07/12 08:05:58;;;;;;;1.53;0.50;;;;;;;;;;4994828;28;20234;-62
2022/07/12 08:08:24;;;;;;;0.90;0.67;;;;;;;;;;4993876;28;20246;-63
2022/07/12 08:11:11;;;;;;;2.20;0.60;;;;;;;;;;4995721;28;20292;-63
2022/07/12 08:13:38;;;;;;;2.10;0.60;;;;;;;;;;4994505;28;20235;-64
2022/07/12 08:16:06;;;;;;;2.10;0.50;;;;;;;;;;4964023;28;20691;-64
2022/07/12 08:18:32;;;;;;;0.47;0.30;;;;;;;;;;4974419;28;20627;-64
2022/07/12 08:20:59;;;;;;;1.27;0.40;;;;;;;;;;4976490;28;20321;-64
2022/07/12 08:23:28;;;;;;;1.60;0.80;;;;;;;;;;4987586;28;20602;-63
2022/07/12 08:25:56;;;;;;;1.80;0.40;;;;;;;;;;4975938;28;20234;-64
2022/07/12 08:28:23;;;;;;;2.70;0.53;;;;;;;;;;4993861;28;20239;-64
2022/07/12 08:30:50;;;;;;;1.73;0.40;;;;;;;;;;4970624;28;20235;-63
2022/07/12 08:33:17;;;;;;;1.00;0.50;;;;;;;;;;4992199;28;20230;-63
2022/07/12 08:35:44;;;;;;;1.30;0.50;;;;;;;;;;4996316;28;20323;-63
2022/07/12 08:38:11;;;;;;;1.70;0.50;;;;;;;;;;4994518;28;20613;-63
2022/07/12 08:40:38;;;;;;;0.77;0.50;;;;;;;;;;4979225;28;20235;-64
2022/07/12 08:43:04;;;;;;;5.97;0.60;;;;;;;;;;4991351;28;20241;-65
2022/07/12 08:45:31;;;;;;;8.93;1.10;;;;;;;;;;4996819;28;20581;-65
2022/07/12 08:47:58;;;;;;;4.97;0.73;;;;;;;;;;4969382;28;20319;-63
2022/07/12 08:50:27;;;;;;;1.60;0.40;;;;;;;;;;4996273;28;20306;-65
2022/07/12 08:52:54;;;;;;;2.60;0.70;;;;;;;;;;4981683;28;20625;-64
2022/07/12 08:55:21;;;;;;;2.03;0.50;;;;;;;;;;4996923;28;20577;-66
2022/07/12 08:57:48;;;;;;;6.10;0.77;;;;;;;;;;4994458;28;20227;-65
2022/07/12 09:00:16;;;;;;;1.70;0.57;;;;;;;;;;4996706;28;20899;-65
2022/07/12 09:02:45;;;;;;;1.77;0.30;;;;;;;;;;4992896;28;20689;-66
2022/07/12 09:05:12;;;;;;;5.60;0.50;;;;;;;;;;4994607;28;20272;-66
2022/07/12 09:07:39;;;;;;;1.27;0.40;;;;;;;;;;4970493;28;20241;-66
2022/07/12 09:10:06;;;;;;;7.57;1.03;;;;;;;;;;4994255;28;20231;-67
2022/07/12 09:12:36;;;;;;;2.47;0.40;;;;;;;;;;4943196;28;20219;-67
2022/07/12 09:15:19;;;;;;;3.33;0.47;;;;;;;;;;4993075;28;20731;-66
2022/07/12 09:18:12;;;;;;;2.30;0.40;;;;;;;;;;4991752;28;20245;-66
2022/07/12 09:20:39;;;;;;;1.80;0.30;;;;;;;;;;4992191;28;20230;-66
2022/07/12 09:23:07;;;;;;;2.20;0.57;;;;;;;;;;4995320;28;20241;-67
2022/07/12 09:25:38;;;;;;;1.90;0.70;;;;;;;;;;4991887;28;20227;-67
2022/07/12 09:28:06;;;;;;;1.60;0.50;;;;;;;;;;4992917;28;20223;-66
2022/07/12 09:30:33;;;;;;;2.57;0.50;;;;;;;;;;4965664;28;20236;-67
2022/07/12 09:36:10;;;;;;;1.50;0.50;;;;;;;;;;4994367;28;20696;-65
2022/07/12 09:38:37;;;;;;;1.70;0.40;;;;;;;;;;4818907;28;5087677;-66
2022/07/12 09:41:05;;;;;;;0.60;0.50;;;;;;;;;;4989900;28;20239;-66
2022/07/12 09:43:32;;;;;;;3.53;0.50;;;;;;;;;;4975368;28;20682;-66
2022/07/12 09:45:59;;;;;;;2.10;0.40;;;;;;;;;;4994150;28;20234;-66
2022/07/12 09:48:26;;;;;;;0.50;0.40;;;;;;;;;;4951870;28;20243;-65
2022/07/12 09:50:53;;;;;;;3.17;0.50;;;;;;;;;;4991169;28;20232;-65
2022/07/12 09:53:21;;;;;;;0.80;0.50;;;;;;;;;;4979170;28;20232;-65
2022/07/12 09:55:52;;;;;;;2.03;0.60;;;;;;;;;;4993890;28;20221;-65
2022/07/12 09:58:26;;;;;;;0.87;0.50;;;;;;;;;;4993285;28;20262;-66
2022/07/12 10:00:53;;;;;;;1.80;0.40;;;;;;;;;;4819740;28;5095055;-65
2022/07/12 10:03:20;;;;;;;1.13;0.47;;;;;;;;;;4991478;28;20238;-66
2022/07/12 10:05:47;;;;;;;1.50;0.60;;;;;;;;;;4992579;28;20232;-66
2022/07/12 10:08:13;;;;;;;1.67;0.40;;;;;;;;;;4991398;28;29483;-66
2022/07/12 10:10:40;;;;;;;0.70;0.50;;;;;;;;;;4992504;28;22984;-67
2022/07/12 10:13:07;;;;;;;0.93;0.50;;;;;;;;;;4972823;28;20238;-66
2022/07/12 10:15:34;;;;;;;1.17;0.60;;;;;;;;;;4994669;28;20235;-66
2022/07/12 10:18:01;;;;;;;2.20;0.63;;;;;;;;;;4964000;28;20238;-67
2022/07/12 10:20:28;;;;;;;1.13;0.40;;;;;;;;;;4976203;28;20236;-66
2022/07/12 10:22:55;;;;;;;0.90;0.50;;;;;;;;;;4640592;28;5094342;-67
2022/07/12 10:25:25;;;;;;;2.10;0.47;;;;;;;;;;4976554;28;20223;-68
2022/07/12 10:27:53;;;;;;;2.67;0.60;;;;;;;;;;4967502;28;20249;-66
2022/07/12 10:30:21;;;;;;;1.00;0.50;;;;;;;;;;4953066;28;20278;-67
2022/07/12 10:32:48;;;;;;;0.43;0.40;;;;;;;;;;4819421;28;5083971;-67
2022/07/12 10:35:16;;;;;;;1.57;0.40;;;;;;;;;;4961266;28;20223;-67
2022/07/12 10:38:03;;;;;;;1.63;0.50;;;;;;;;;;4969444;28;20238;-68
2022/07/12 10:40:33;;;;;;;1.73;0.60;;;;;;;;;;4786035;28;5093088;-68
2022/07/12 10:43:04;;;;;;;1.63;0.50;;;;;;;;;;4758686;28;5089340;-68
2022/07/12 10:45:31;;;;;;;4.27;0.83;;;;;;;;;;4975847;28;20314;-67
2022/07/12 10:48:01;;;;;;;1.22;0.50;;;;;;;;;;4487314;28;5088729;-68
2022/07/12 10:50:55;;;;;;;3.70;0.50;;;;;;;;;;4960429;28;20321;-67
2022/07/12 10:53:23;;;;;;;3.50;0.60;;;;;;;;;;4972003;28;21092;-67
2022/07/12 10:56:06;;;;;;;2.00;0.63;;;;;;;;;;4938254;28;20228;-67
2022/07/12 10:58:34;;;;;;;3.47;0.50;;;;;;;;;;4975468;28;20259;-67
2022/07/12 11:01:16;;;;;;;12.17;1.60;;;;;;;;;;4975693;28;20231;-67
2022/07/12 11:03:47;;;;;;;5.03;0.80;;;;;;;;;;4940971;28;20228;-67
2022/07/12 11:06:21;;;;;;;4.13;0.70;;;;;;;;;;4958657;28;20813;-67
2022/07/12 11:08:48;;;;;;;4.10;0.70;;;;;;;;;;4964620;28;20591;-66
2022/07/12 11:11:14;;;;;;;3.80;0.60;;;;;;;;;;4956470;28;20232;-67
2022/07/12 11:13:41;;;;;;;4.43;0.60;;;;;;;;;;4778060;28;5088745;-67
2022/07/12 11:16:08;;;;;;;1.57;0.53;;;;;;;;;;4784890;28;5092810;-66
2022/07/12 11:18:35;;;;;;;4.43;0.60;;;;;;;;;;4926383;28;20255;-67
2022/07/12 11:21:02;;;;;;;4.27;0.60;;;;;;;;;;4958988;28;20722;-68
2022/07/12 11:23:29;;;;;;;2.63;0.67;;;;;;;;;;4962040;28;20236;-68
2022/07/12 11:25:56;;;;;;;4.60;0.70;;;;;;;;;;4976504;28;20224;-69
2022/07/12 11:28:30;;;;;;;1.77;0.60;;;;;;;;;;4933374;28;20591;-69
2022/07/12 11:31:07;;;;;;;4.03;0.57;;;;;;;;;;4950868;28;20229;-69
2022/07/12 11:33:51;;;;;;;3.30;0.40;;;;;;;;;;4786440;28;5094684;-69
2022/07/12 11:36:18;;;;;;;0.97;0.50;;;;;;;;;;4975409;28;20247;-68
2022/07/12 11:38:45;;;;;;;1.47;0.60;;;;;;;;;;4976926;28;31117;-69
2022/07/12 11:41:12;;;;;;;3.87;0.80;;;;;;;;;;4977594;28;20285;-68
2022/07/12 11:43:39;;;;;;;10.17;1.50;;;;;;;;;;4938833;28;20231;-69
2022/07/12 11:46:06;;;;;;;10.53;1.20;;;;;;;;;;4996956;28;20234;-68
2022/07/12 11:48:34;;;;;;;2.70;0.60;;;;;;;;;;4972624;28;20234;-68
2022/07/12 11:51:05;;;;;;;5.07;0.80;;;;;;;;;;4912318;28;20467;-68
2022/07/12 11:53:32;;;;;;;4.27;0.70;;;;;;;;;;4953666;28;21634;-69
2022/07/12 11:55:59;;;;;;;1.77;0.50;;;;;;;;;;4995715;28;20235;-68
2022/07/12 11:58:26;;;;;;;2.37;0.50;;;;;;;;;;4972303;28;20235;-68
2022/07/12 12:00:53;;;;;;;2.90;0.50;;;;;;;;;;4942301;28;27977;-70
2022/07/12 12:03:21;;;;;;;12.23;1.40;;;;;;;;;;4621654;28;5095493;-69
2022/07/12 12:05:49;;;;;;;3.33;0.43;;;;;;;;;;4950803;28;20239;-68
2022/07/12 12:08:16;;;;;;;3.67;0.50;;;;;;;;;;4817989;28;5093814;-69
2022/07/12 12:10:43;;;;;;;3.20;0.80;;;;;;;;;;4916335;28;20302;-70
2022/07/12 12:13:16;;;;;;;0.60;0.60;;;;;;;;;;4975485;28;21360;-70
2022/07/12 12:15:51;;;;;;;2.90;0.60;;;;;;;;;;4946719;28;20246;-71
2022/07/12 12:18:27;;;;;;;1.50;0.50;;;;;;;;;;4888783;28;21073;-68
2022/07/12 12:21:04;;;;;;;0.83;0.40;;;;;;;;;;4777797;28;5085395;-69
2022/07/12 12:23:31;;;;;;;3.57;0.63;;;;;;;;;;4969225;28;20227;-71
2022/07/12 12:26:15;;;;;;;1.17;0.60;;;;;;;;;;4905827;28;20230;-68
2022/07/12 12:28:44;;;;;;;6.80;0.70;;;;;;;;;;4993328;28;20586;-73
2022/07/12 12:31:11;;;;;;;2.77;0.67;;;;;;;;;;4994101;28;21093;-72
2022/07/12 12:33:38;;;;;;;0.77;0.50;;;;;;;;;;4946658;28;20239;-74
2022/07/12 12:36:11;;;;;;;4.57;0.60;;;;;;;;;;4800336;28;5088633;-72
2022/07/12 12:38:38;;;;;;;2.23;0.50;;;;;;;;;;4952105;28;20713;-75
2022/07/12 12:41:06;;;;;;;2.33;0.70;;;;;;;;;;4971933;28;20638;-73
2022/07/12 12:43:33;;;;;;;3.50;0.63;;;;;;;;;;4938685;28;20266;-72
2022/07/12 12:46:00;;;;;;;7.77;1.00;;;;;;;;;;4978571;28;74977;-74
2022/07/12 12:48:27;;;;;;;5.47;0.60;;;;;;;;;;4999698;28;20235;-72
2022/07/12 12:50:55;;;;;;;5.80;0.57;;;;;;;;;;5001052;28;20250;-73
2022/07/12 12:53:39;;;;;;;4.87;0.90;;;;;;;;;;4998468;28;20222;-73
2022/07/12 12:56:10;;;;;;;16.70;2.23;;;;;;;;;;4977321;28;20314;-72
2022/07/12 12:58:37;;;;;;;3.80;0.80;;;;;;;;;;4969632;28;20713;-71
2022/07/12 13:01:04;;;;;;;2.87;0.40;;;;;;;;;;4922414;28;20824;-71
2022/07/12 13:03:31;;;;;;;4.37;0.67;;;;;;;;;;4997892;28;20336;-71
2022/07/12 13:05:59;;;;;;;1.03;0.50;;;;;;;;;;5001086;28;20306;-71
2022/07/12 13:08:27;;;;;;;2.87;0.73;;;;;;;;;;4997464;28;20259;-72
2022/07/12 13:13:39;;;;;;;3.30;0.80;;;;;;;;;;4973617;28;22411;-73
2022/07/12 13:16:07;;;;;;;21.67;1.80;;;;;;;;;;4737818;28;5095145;-72
2022/07/12 13:18:34;;;;;;;5.47;0.53;;;;;;;;;;4792772;28;5092754;-72
2022/07/12 13:21:02;;;;;;;2.00;0.53;;;;;;;;;;4799746;28;5089465;-72
2022/07/12 13:23:29;;;;;;;4.50;0.90;;;;;;;;;;4999707;28;20227;-71
2022/07/12 13:25:56;;;;;;;4.77;0.60;;;;;;;;;;4997515;28;24193;-72
2022/07/12 13:28:22;;;;;;;1.30;0.60;;;;;;;;;;4826264;28;5097474;-71
2022/07/12 13:30:52;;;;;;;2.67;0.60;;;;;;;;;;4806496;28;5093801;-72
2022/07/12 13:33:22;;;;;;;5.32;0.63;;;;;;;;;;4724389;28;5088358;-70
2022/07/12 13:35:50;;;;;;;2.10;0.53;;;;;;;;;;4602596;28;5096075;-71
2022/07/12 13:38:17;;;;;;;3.67;0.70;;;;;;;;;;4941861;28;20230;-72
2022/07/12 13:40:44;;;;;;;3.97;0.60;;;;;;;;;;4711034;28;5090909;-73
2022/07/12 13:43:11;;;;;;;0.87;0.50;;;;;;;;;;4933886;28;20731;-73
2022/07/12 13:45:38;;;;;;;2.73;0.67;;;;;;;;;;4875055;28;20269;-73
2022/07/12 13:48:05;;;;;;;3.77;0.70;;;;;;;;;;4947677;28;20307;-73
2022/07/12 13:50:31;;;;;;;1.43;0.50;;;;;;;;;;4866960;28;26264;-72
2022/07/12 13:52:59;;;;;;;12.05;1.63;;;;;;;;;;4726852;28;5091606;-74
2022/07/12 13:55:27;;;;;;;6.23;0.90;;;;;;;;;;4889112;28;20634;-73
2022/07/12 13:57:54;;;;;;;3.73;0.60;;;;;;;;;;4746121;28;5092305;-74
2022/07/12 14:00:21;;;;;;;2.60;0.70;;;;;;;;;;4921836;28;20712;-73
2022/07/12 14:02:49;;;;;;;6.33;0.90;;;;;;;;;;4922790;28;21229;-72
2022/07/12 14:05:21;;;;;;;3.57;0.90;;;;;;;;;;4773652;28;5094112;-72
2022/07/12 14:07:49;;;;;;;4.20;0.80;;;;;;;;;;4996533;28;20479;-72
2022/07/12 14:10:17;;;;;;;5.90;1.00;;;;;;;;;;4997858;28;20285;-72
2022/07/12 14:12:44;;;;;;;11.27;1.20;;;;;;;;;;4987197;28;20225;-73
2022/07/12 14:17:49;;;;;;;3.73;0.87;;;;;;;;;;5005955;28;20235;-72
2022/07/12 14:20:17;;;;;;;3.10;0.60;;;;;;;;;;4977753;28;22884;-72
2022/07/12 14:22:44;;;;;;;1.77;0.70;;;;;;;;;;4989566;28;20302;-71
2022/07/12 14:25:11;;;;;;;1.77;0.50;;;;;;;;;;4619605;28;5089753;-71
2022/07/12 14:27:57;;;;;;;2.40;0.70;;;;;;;;;;4978390;28;20243;-72
2022/07/12 14:30:25;;;;;;;3.70;0.60;;;;;;;;;;5000785;28;20678;-73
2022/07/12 14:32:52;;;;;;;3.67;0.97;;;;;;;;;;5004611;28;20259;-72
2022/07/12 14:35:19;;;;;;;0.80;0.50;;;;;;;;;;4990601;28;20267;-72
2022/07/12 14:37:46;;;;;;;2.90;0.50;;;;;;;;;;4918681;28;20238;-72
2022/07/12 14:40:13;;;;;;;3.00;0.67;;;;;;;;;;4986100;28;20322;-72
2022/07/12 14:42:40;;;;;;;19.60;2.03;;;;;;;;;;4887921;28;48001;-71
2022/07/12 14:45:07;;;;;;;1.60;0.60;;;;;;;;;;4933557;28;20233;-72
2022/07/12 14:47:34;;;;;;;2.50;0.67;;;;;;;;;;4854759;28;21043;-74
2022/07/12 14:50:18;;;;;;;1.00;0.60;;;;;;;;;;4952319;28;20234;-77
2022/07/12 14:52:47;;;;;;;2.73;0.70;;;;;;;;;;4955783;28;20223;-74
2022/07/12 14:55:32;;;;;;;2.50;0.70;;;;;;;;;;4932608;28;233060;-76
2022/07/12 14:58:00;;;;;;;7.77;1.33;;;;;;;;;;4934475;28;21918;-75
2022/07/12 15:00:27;;;;;;;1.33;0.63;;;;;;;;;;4972697;28;27173;-74
2022/07/12 15:02:59;;;;;;;3.40;0.80;;;;;;;;;;4919023;28;640188;-74
2022/07/12 15:05:28;;;;;;;4.27;0.90;;;;;;;;;;4923237;28;24235;-72
2022/07/12 15:07:55;;;;;;;1.80;0.63;;;;;;;;;;4914018;28;231398;-74